createdAt,value
2024-03-14T00:00:00.867Z,93833.22
2024-03-14T00:00:35.614Z,93836.24
2024-03-14T00:01:42.734Z,93836.46
2024-03-14T00:02:16.880Z,93838.41
2024-03-14T00:02:50.362Z,93837.65
2024-03-14T00:03:24.246Z,93834.86
2024-03-14T00:03:57.749Z,93835.03
2024-03-14T00:04:31.374Z,93832.45
2024-03-14T00:05:20.130Z,93832.34
2024-03-14T00:05:55.154Z,93834.85
2024-03-14T00:06:30.697Z,93831.52
2024-03-14T00:07:04.276Z,93831.79
2024-03-14T00:07:37.662Z,93830.67
2024-03-14T00:08:12.132Z,93827.70
2024-03-14T00:08:59.981Z,93830.88
2024-03-14T00:09:34.044Z,93830.27
2024-03-14T00:10:09.547Z,93828.52
2024-03-14T00:10:43.908Z,93828.48
2024-03-14T00:11:17.406Z,93822.86
2024-03-14T00:11:51.146Z,93825.17
2024-03-14T00:12:39.719Z,93825.64
2024-03-14T00:13:13.424Z,93822.30
2024-03-14T00:13:47.356Z,93824.27
2024-03-14T00:14:21.020Z,93820.86
2024-03-14T00:14:55.027Z,93818.99
2024-03-14T00:15:41.099Z,93820.61
2024-03-14T00:16:28.509Z,93821.22
2024-03-14T00:17:02.038Z,93820.23
2024-03-14T00:17:35.542Z,93824.19
2024-03-14T00:18:11.666Z,93820.69
2024-03-14T00:18:45.802Z,93817.88
2024-03-14T00:19:22.917Z,93820.11
2024-03-14T00:20:13.762Z,93817.15
2024-03-14T00:20:47.316Z,93812.84
2024-03-14T00:21:22.490Z,93812.42
2024-03-14T00:21:59.210Z,93809.48
2024-03-14T00:22:33.073Z,93813.42
2024-03-14T00:23:06.641Z,93812.59
2024-03-14T00:23:50.282Z,93813.34
2024-03-14T00:24:24.086Z,93812.61
2024-03-14T00:24:58.802Z,93810.67
2024-03-14T00:25:32.324Z,93810.63
2024-03-14T00:26:10.581Z,93808.10
2024-03-14T00:26:45.439Z,93808.39
2024-03-14T00:27:30.217Z,93809.93
2024-03-14T00:28:04.429Z,93811.08
2024-03-14T00:28:38.218Z,93810.00
2024-03-14T00:29:11.709Z,93814.26
2024-03-14T00:29:47.480Z,93810.60
2024-03-14T00:30:21.767Z,93811.58
2024-03-14T00:31:12.583Z,93805.41
2024-03-14T00:31:46.040Z,93810.09
2024-03-14T00:32:22.451Z,93807.49
2024-03-14T00:32:56.252Z,93805.69
2024-03-14T00:33:30.186Z,93810.01
2024-03-14T00:34:03.879Z,93806.41
2024-03-14T00:34:52.064Z,93805.30
2024-03-14T00:35:26.256Z,93807.58
2024-03-14T00:36:00.861Z,93808.39
2024-03-14T00:36:39.245Z,93804.02
2024-03-14T00:37:13.233Z,93806.21
2024-03-14T00:37:46.981Z,93811.30
2024-03-14T00:38:35.122Z,93807.96
2024-03-14T00:39:08.998Z,93807.52
2024-03-14T00:39:42.636Z,93808.48
2024-03-14T00:40:18.126Z,93807.98
2024-03-14T00:40:53.084Z,93808.40
2024-03-14T00:41:26.552Z,93808.32
2024-03-14T00:42:14.959Z,93807.00
2024-03-14T00:42:48.592Z,93809.52
2024-03-14T00:43:23.257Z,93809.70
2024-03-14T00:43:57.081Z,93806.71
2024-03-14T00:44:30.756Z,93807.91
2024-03-14T00:45:06.569Z,93806.89
2024-03-14T00:45:56.243Z,93796.78
2024-03-14T00:46:34.885Z,93808.06
2024-03-14T00:47:09.897Z,93803.31
2024-03-14T00:47:44.500Z,93803.30
2024-03-14T00:48:19.762Z,93801.94
2024-03-14T00:49:31.132Z,93801.33
2024-03-14T00:50:11.778Z,93802.10
2024-03-14T00:50:45.812Z,93798.85
2024-03-14T00:51:19.625Z,93801.03
2024-03-14T00:51:53.142Z,93799.40
2024-03-14T00:52:27.869Z,93799.83
2024-03-14T00:53:10.262Z,93798.48
2024-03-14T00:53:44.085Z,93801.96
2024-03-14T00:54:17.645Z,93799.27
2024-03-14T00:54:51.365Z,93799.88
2024-03-14T00:55:25.121Z,93798.50
2024-03-14T00:56:00.544Z,93802.41
2024-03-14T00:56:51.741Z,93798.09
2024-03-14T00:57:25.307Z,93801.69
2024-03-14T00:57:58.904Z,93800.09
2024-03-14T00:58:33.024Z,93797.85
2024-03-14T00:59:06.508Z,93798.48
2024-03-14T00:59:41.442Z,93796.94
2024-03-14T01:00:32.961Z,93795.89
2024-03-14T01:01:06.502Z,93797.11
2024-03-14T01:01:43.985Z,93795.86
2024-03-14T01:02:17.646Z,93794.95
2024-03-14T01:02:52.122Z,93797.88
2024-03-14T01:03:25.868Z,93793.73
2024-03-14T01:04:15.355Z,93793.86
2024-03-14T01:04:51.476Z,93795.64
2024-03-14T01:05:26.425Z,93792.19
2024-03-14T01:06:00.268Z,93787.80
2024-03-14T01:06:34.043Z,93788.20
2024-03-14T01:07:07.713Z,93791.65
2024-03-14T01:07:52.519Z,93785.73
2024-03-14T01:08:26.251Z,93786.00
2024-03-14T01:08:59.860Z,93787.89
2024-03-14T01:09:34.484Z,93787.15
2024-03-14T01:10:08.399Z,93783.75
2024-03-14T01:10:42.184Z,93788.20
2024-03-14T01:11:32.379Z,93783.94
2024-03-14T01:12:07.547Z,93787.31
2024-03-14T01:12:41.076Z,93785.38
2024-03-14T01:13:14.983Z,93786.55
2024-03-14T01:13:48.670Z,93785.35
2024-03-14T01:14:25.007Z,93788.04
2024-03-14T01:15:10.565Z,93786.55
2024-03-14T01:15:47.044Z,93784.08
2024-03-14T01:16:20.969Z,93780.79
2024-03-14T01:16:54.438Z,93776.73
2024-03-14T01:17:27.955Z,93778.41
2024-03-14T01:18:01.433Z,93780.05
2024-03-14T01:18:52.008Z,93779.23
2024-03-14T01:19:26.606Z,93777.47
2024-03-14T01:20:00.100Z,93778.81
2024-03-14T01:20:36.607Z,93779.06
2024-03-14T01:21:12.223Z,93775.98
2024-03-14T01:21:46.098Z,93773.71
2024-03-14T01:22:34.172Z,93771.73
2024-03-14T01:23:08.915Z,93771.90
2024-03-14T01:23:42.755Z,93768.73
2024-03-14T01:24:16.308Z,93766.23
2024-03-14T01:24:50.277Z,93769.33
2024-03-14T01:25:24.613Z,93767.06
2024-03-14T01:26:12.255Z,93764.59
2024-03-14T01:26:46.160Z,93764.11
2024-03-14T01:27:20.331Z,93764.05
2024-03-14T01:27:54.681Z,93757.45
2024-03-14T01:28:31.512Z,93760.13
2024-03-14T01:29:05.472Z,93761.42
2024-03-14T01:29:50.435Z,93762.13
2024-03-14T01:30:24.110Z,93758.48
2024-03-14T01:31:00.495Z,93759.67
2024-03-14T01:31:34.638Z,93758.77
2024-03-14T01:32:08.476Z,93754.86
2024-03-14T01:32:43.180Z,93753.61
2024-03-14T01:33:32.513Z,93752.38
2024-03-14T01:34:07.117Z,93755.45
2024-03-14T01:34:41.289Z,93756.88
2024-03-14T01:35:14.868Z,93760.70
2024-03-14T01:35:48.427Z,93759.17
2024-03-14T01:36:22.277Z,93758.10
2024-03-14T01:37:13.317Z,93757.16
2024-03-14T01:37:47.409Z,93757.58
2024-03-14T01:38:21.087Z,93755.77
2024-03-14T01:38:54.662Z,93752.09
2024-03-14T01:39:28.795Z,93753.45
2024-03-14T01:40:03.369Z,93755.97
2024-03-14T01:40:50.380Z,93750.05
2024-03-14T01:41:24.008Z,93752.02
2024-03-14T01:41:58.396Z,93757.22
2024-03-14T01:42:33.700Z,93755.86
2024-03-14T01:43:10.481Z,93748.88
2024-03-14T01:43:51.731Z,93749.94
2024-03-14T01:45:06.790Z,93753.38
2024-03-14T01:45:40.789Z,93751.52
2024-03-14T01:46:15.189Z,93750.92
2024-03-14T01:46:49.136Z,93748.86
2024-03-14T01:47:25.432Z,93749.45
2024-03-14T01:48:25.735Z,93749.56
2024-03-14T01:49:00.321Z,93751.83
2024-03-14T01:49:47.875Z,93753.08
2024-03-14T01:50:21.367Z,93755.91
2024-03-14T01:50:55.776Z,93754.86
2024-03-14T01:51:30.495Z,93750.94
2024-03-14T01:52:22.507Z,93747.37
2024-03-14T01:52:56.488Z,93749.21
2024-03-14T01:53:31.312Z,93747.66
2024-03-14T01:54:05.123Z,93748.52
2024-03-14T01:54:38.698Z,93745.29
2024-03-14T01:55:12.631Z,93747.16
2024-03-14T01:56:01.143Z,93746.21
2024-03-14T01:56:35.054Z,93744.68
2024-03-14T01:57:10.744Z,93749.42
2024-03-14T01:57:44.603Z,93742.67
2024-03-14T01:58:23.595Z,93745.65
2024-03-14T01:58:57.154Z,93743.32
2024-03-14T01:59:41.542Z,93738.88
2024-03-14T02:00:20.356Z,93734.24
2024-03-14T02:00:54.815Z,93738.54
2024-03-14T02:01:28.719Z,93739.13
2024-03-14T02:02:02.443Z,93736.61
2024-03-14T02:02:37.041Z,93734.98
2024-03-14T02:03:21.092Z,93735.95
2024-03-14T02:04:18.976Z,93736.08
2024-03-14T02:04:53.709Z,93735.01
2024-03-14T02:05:40.397Z,93737.82
2024-03-14T02:06:20.393Z,93741.27
2024-03-14T02:07:27.664Z,93736.85
2024-03-14T02:08:01.639Z,93739.25
2024-03-14T02:08:36.523Z,93736.17
2024-03-14T02:09:10.462Z,93736.02
2024-03-14T02:09:46.933Z,93736.24
2024-03-14T02:10:26.108Z,93729.86
2024-03-14T02:11:08.337Z,93731.60
2024-03-14T02:11:42.646Z,93736.94
2024-03-14T02:12:16.953Z,93736.30
2024-03-14T02:12:50.393Z,93737.97
2024-03-14T02:13:23.956Z,93733.76
2024-03-14T02:13:58.717Z,93733.73
2024-03-14T02:14:51.176Z,93733.36
2024-03-14T02:15:25.589Z,93733.23
2024-03-14T02:15:59.949Z,93733.39
2024-03-14T02:16:34.295Z,93735.67
2024-03-14T02:17:08.396Z,93732.68
2024-03-14T02:17:41.885Z,93732.20
2024-03-14T02:18:29.970Z,93731.72
2024-03-14T02:19:04.057Z,93730.86
2024-03-14T02:19:39.958Z,93730.64
2024-03-14T02:20:16.488Z,93728.56
2024-03-14T02:20:50.293Z,93729.36
2024-03-14T02:21:25.290Z,93725.30
2024-03-14T02:22:22.525Z,93724.70
2024-03-14T02:22:56.107Z,93728.13
2024-03-14T02:23:30.765Z,93726.17
2024-03-14T02:24:05.901Z,93727.12
2024-03-14T02:24:41.507Z,93724.02
2024-03-14T02:25:52.638Z,93722.27
2024-03-14T02:26:28.516Z,93720.63
2024-03-14T02:27:05.992Z,93720.96
2024-03-14T02:27:40.616Z,93722.11
2024-03-14T02:28:16.398Z,93727.99
2024-03-14T02:28:50.154Z,93726.90
2024-03-14T02:29:32.509Z,93723.17
2024-03-14T02:30:06.286Z,93727.08
2024-03-14T02:30:41.232Z,93726.75
2024-03-14T02:31:14.830Z,93726.25
2024-03-14T02:31:49.682Z,93719.34
2024-03-14T02:32:23.554Z,93711.29
2024-03-14T02:33:15.005Z,93724.52
2024-03-14T02:33:49.422Z,93726.36
2024-03-14T02:34:23.392Z,93721.70
2024-03-14T02:34:57.238Z,93722.83
2024-03-14T02:35:31.100Z,93724.95
2024-03-14T02:36:06.838Z,93722.80
2024-03-14T02:36:53.280Z,93722.08
2024-03-14T02:37:26.968Z,93718.27
2024-03-14T02:38:00.814Z,93721.19
2024-03-14T02:38:35.585Z,93719.39
2024-03-14T02:39:11.690Z,93717.98
2024-03-14T02:39:46.222Z,93718.47
2024-03-14T02:40:31.377Z,93717.83
2024-03-14T02:41:04.902Z,93718.35
2024-03-14T02:41:38.667Z,93721.88
2024-03-14T02:42:13.070Z,93718.99
2024-03-14T02:42:49.093Z,93715.20
2024-03-14T02:43:23.942Z,93715.91
2024-03-14T02:44:16.685Z,93713.49
2024-03-14T02:44:50.505Z,93716.81
2024-03-14T02:45:24.090Z,93713.60
2024-03-14T02:45:57.528Z,93719.17
2024-03-14T02:46:31.193Z,93715.52
2024-03-14T02:47:05.644Z,93715.96
2024-03-14T02:47:49.855Z,93714.80
2024-03-14T02:48:23.867Z,93714.38
2024-03-14T02:48:58.103Z,93714.71
2024-03-14T02:49:31.856Z,93717.73
2024-03-14T02:50:11.067Z,93721.10
2024-03-14T02:50:45.830Z,93721.59
2024-03-14T02:51:29.516Z,93721.35
2024-03-14T02:52:03.225Z,93720.45
2024-03-14T02:52:37.345Z,93723.80
2024-03-14T02:53:14.856Z,93724.10
2024-03-14T02:53:49.070Z,93727.82
2024-03-14T02:54:24.193Z,93723.52
2024-03-14T02:55:11.149Z,93725.58
2024-03-14T02:55:45.890Z,93729.88
2024-03-14T02:56:19.979Z,93727.23
2024-03-14T02:56:54.283Z,93722.20
2024-03-14T02:57:28.334Z,93727.19
2024-03-14T02:58:02.468Z,93725.23
2024-03-14T02:58:55.552Z,93725.73
2024-03-14T02:59:29.190Z,93724.52
2024-03-14T03:00:06.186Z,93723.33
2024-03-14T03:00:40.129Z,93724.29
2024-03-14T03:01:14.197Z,93722.30
2024-03-14T03:01:48.668Z,93721.40
2024-03-14T03:02:41.055Z,93718.52
2024-03-14T03:03:17.757Z,93718.23
2024-03-14T03:03:51.688Z,93717.39
2024-03-14T03:04:26.234Z,93714.35
2024-03-14T03:05:02.935Z,93715.63
2024-03-14T03:06:13.933Z,93713.15
2024-03-14T03:06:55.036Z,93715.25
2024-03-14T03:07:29.630Z,93713.30
2024-03-14T03:08:04.124Z,93713.35
2024-03-14T03:08:38.767Z,93711.77
2024-03-14T03:09:51.634Z,93713.93
2024-03-14T03:10:25.222Z,93711.04
2024-03-14T03:10:59.272Z,93709.63
2024-03-14T03:11:33.872Z,93709.26
2024-03-14T03:12:08.355Z,93712.95
2024-03-14T03:12:42.366Z,93711.66
2024-03-14T03:13:33.513Z,93708.91
2024-03-14T03:14:09.782Z,93711.02
2024-03-14T03:14:44.460Z,93712.43
2024-03-14T03:15:18.153Z,93711.83
2024-03-14T03:15:51.856Z,93709.64
2024-03-14T03:16:25.492Z,93710.15
2024-03-14T03:17:13.728Z,93711.71
2024-03-14T03:17:47.144Z,93712.59
2024-03-14T03:18:20.899Z,93710.93
2024-03-14T03:18:54.663Z,93713.13
2024-03-14T03:19:29.294Z,93709.77
2024-03-14T03:20:11.340Z,93709.69
2024-03-14T03:20:53.751Z,93708.36
2024-03-14T03:21:27.633Z,93709.71
2024-03-14T03:22:01.576Z,93710.77
2024-03-14T03:22:55.499Z,93712.61
2024-03-14T03:23:29.266Z,93711.65
2024-03-14T03:24:04.247Z,93711.34
2024-03-14T03:24:53.332Z,93707.23
2024-03-14T03:25:26.904Z,93701.50
2024-03-14T03:26:00.573Z,93709.62
2024-03-14T03:26:34.027Z,93702.94
2024-03-14T03:27:15.560Z,93702.89
2024-03-14T03:27:49.348Z,93703.92
2024-03-14T03:28:33.551Z,93697.80
2024-03-14T03:29:07.668Z,93702.77
2024-03-14T03:29:41.652Z,93698.86
2024-03-14T03:30:16.534Z,93703.88
2024-03-14T03:30:50.336Z,93695.64
2024-03-14T03:31:25.533Z,93699.33
2024-03-14T03:32:18.031Z,93695.31
2024-03-14T03:32:51.995Z,93696.55
2024-03-14T03:33:26.900Z,93698.85
2024-03-14T03:34:00.399Z,93695.09
2024-03-14T03:34:34.018Z,93692.77
2024-03-14T03:35:07.814Z,93695.30
2024-03-14T03:35:51.475Z,93694.44
2024-03-14T03:36:25.526Z,93695.65
2024-03-14T03:36:59.658Z,93699.83
2024-03-14T03:37:34.221Z,93693.87
2024-03-14T03:38:07.714Z,93698.50
2024-03-14T03:38:43.059Z,93694.32
2024-03-14T03:39:32.722Z,93699.36
2024-03-14T03:40:16.162Z,93698.15
2024-03-14T03:40:50.133Z,93702.27
2024-03-14T03:41:25.373Z,93696.95
2024-03-14T03:41:59.198Z,93699.79
2024-03-14T03:43:15.193Z,93700.65
2024-03-14T03:43:48.616Z,93695.80
2024-03-14T03:44:22.252Z,93696.26
2024-03-14T03:44:56.766Z,93696.80
2024-03-14T03:45:33.333Z,93697.84
2024-03-14T03:46:08.522Z,93694.00
2024-03-14T03:46:52.699Z,93694.88
2024-03-14T03:47:26.498Z,93696.75
2024-03-14T03:48:01.909Z,93692.48
2024-03-14T03:48:39.214Z,93696.70
2024-03-14T03:49:12.994Z,93695.91
2024-03-14T03:49:47.874Z,93697.13
2024-03-14T03:50:35.337Z,93695.88
2024-03-14T03:51:09.373Z,93698.20
2024-03-14T03:51:42.903Z,93695.72
2024-03-14T03:52:18.685Z,93693.58
2024-03-14T03:52:52.474Z,93694.44
2024-03-14T03:53:26.032Z,93692.30
2024-03-14T03:54:14.569Z,93691.97
2024-03-14T03:54:48.172Z,93690.23
2024-03-14T03:55:22.838Z,93694.23
2024-03-14T03:55:56.483Z,93691.05
2024-03-14T03:56:30.063Z,93689.83
2024-03-14T03:57:03.840Z,93692.89
2024-03-14T03:57:53.162Z,93691.87
2024-03-14T03:58:27.086Z,93690.20
2024-03-14T03:59:00.909Z,93689.91
2024-03-14T03:59:34.446Z,93690.80
2024-03-14T04:00:30.120Z,93689.21
2024-03-14T04:01:33.094Z,93686.23
2024-03-14T04:02:12.390Z,93688.30
2024-03-14T04:02:48.563Z,93686.39
2024-03-14T04:03:23.214Z,93685.52
2024-03-14T04:03:57.486Z,93686.73
2024-03-14T04:05:11.396Z,93691.01
2024-03-14T04:05:44.858Z,93687.91
2024-03-14T04:06:18.412Z,93687.29
2024-03-14T04:06:51.728Z,93690.27
2024-03-14T04:07:30.155Z,93686.83
2024-03-14T04:08:06.240Z,93680.49
2024-03-14T04:08:51.698Z,93685.70
2024-03-14T04:09:27.650Z,93683.77
2024-03-14T04:10:02.148Z,93683.77
2024-03-14T04:10:36.544Z,93686.44
2024-03-14T04:11:12.772Z,93686.34
2024-03-14T04:11:46.589Z,93684.98
2024-03-14T04:12:33.530Z,93686.92
2024-03-14T04:13:07.518Z,93685.05
2024-03-14T04:13:41.101Z,93687.41
2024-03-14T04:14:14.973Z,93688.20
2024-03-14T04:14:48.724Z,93688.92
2024-03-14T04:15:25.424Z,93690.04
2024-03-14T04:16:10.146Z,93688.32
2024-03-14T04:16:45.438Z,93689.70
2024-03-14T04:17:20.126Z,93689.86
2024-03-14T04:17:56.187Z,93692.75
2024-03-14T04:18:31.574Z,93693.09
2024-03-14T04:19:07.627Z,93692.39
2024-03-14T04:19:53.784Z,93688.06
2024-03-14T04:20:31.180Z,93690.05
2024-03-14T04:21:07.016Z,93694.98
2024-03-14T04:21:40.627Z,93691.33
2024-03-14T04:22:15.907Z,93690.91
2024-03-14T04:22:50.414Z,93688.92
2024-03-14T04:23:38.314Z,93687.81
2024-03-14T04:24:12.418Z,93690.00
2024-03-14T04:24:46.729Z,93691.02
2024-03-14T04:25:20.313Z,93689.02
2024-03-14T04:25:57.827Z,93687.80
2024-03-14T04:26:31.435Z,93689.65
2024-03-14T04:27:15.141Z,93689.17
2024-03-14T04:27:49.280Z,93686.73
2024-03-14T04:28:25.109Z,93686.11
2024-03-14T04:28:59.982Z,93686.39
2024-03-14T04:29:34.112Z,93687.34
2024-03-14T04:30:08.192Z,93684.47
2024-03-14T04:30:57.137Z,93685.86
2024-03-14T04:31:30.930Z,93691.40
2024-03-14T04:32:04.691Z,93691.14
2024-03-14T04:32:42.480Z,93688.02
2024-03-14T04:33:17.823Z,93686.55
2024-03-14T04:33:51.700Z,93693.55
2024-03-14T04:34:41.851Z,93689.26
2024-03-14T04:35:18.817Z,93692.00
2024-03-14T04:35:53.879Z,93689.42
2024-03-14T04:36:27.467Z,93687.61
2024-03-14T04:37:02.032Z,93686.77
2024-03-14T04:37:37.921Z,93690.31
2024-03-14T04:38:24.824Z,93689.08
2024-03-14T04:38:59.078Z,93682.95
2024-03-14T04:39:34.364Z,93684.94
2024-03-14T04:40:14.832Z,93684.05
2024-03-14T04:40:48.985Z,93687.19
2024-03-14T04:41:59.488Z,93684.81
2024-03-14T04:42:33.229Z,93687.17
2024-03-14T04:43:09.078Z,93686.65
2024-03-14T04:43:46.466Z,93686.09
2024-03-14T04:44:20.540Z,93683.05
2024-03-14T04:44:56.399Z,93684.62
2024-03-14T04:45:42.752Z,93685.03
2024-03-14T04:46:18.046Z,93683.27
2024-03-14T04:46:56.380Z,93689.30
2024-03-14T04:47:34.368Z,93685.09
2024-03-14T04:48:08.642Z,93688.01
2024-03-14T04:49:20.138Z,93690.74
2024-03-14T04:49:54.206Z,93689.63
2024-03-14T04:50:28.568Z,93689.79
2024-03-14T04:51:02.609Z,93689.41
2024-03-14T04:51:36.182Z,93694.30
2024-03-14T04:52:11.664Z,93693.20
2024-03-14T04:52:58.434Z,93688.64
2024-03-14T04:53:32.245Z,93694.54
2024-03-14T04:54:06.054Z,93695.23
2024-03-14T04:54:39.714Z,93698.64
2024-03-14T04:55:13.644Z,93696.63
2024-03-14T04:55:47.713Z,93697.03
2024-03-14T04:56:37.442Z,93696.35
2024-03-14T04:57:11.062Z,93694.27
2024-03-14T04:57:47.563Z,93698.56
2024-03-14T04:58:21.222Z,93698.80
2024-03-14T04:58:54.738Z,93698.11
2024-03-14T04:59:31.049Z,93700.45
2024-03-14T05:00:23.608Z,93698.88
2024-03-14T05:00:57.531Z,93701.98
2024-03-14T05:01:31.552Z,93696.46
2024-03-14T05:02:05.345Z,93702.29
2024-03-14T05:02:39.955Z,93698.86
2024-03-14T05:03:13.544Z,93700.38
2024-03-14T05:03:58.945Z,93700.48
2024-03-14T05:04:32.560Z,93700.79
2024-03-14T05:05:07.151Z,93700.47
2024-03-14T05:05:42.159Z,93697.95
2024-03-14T05:06:16.062Z,93700.14
2024-03-14T05:06:49.883Z,93699.90
2024-03-14T05:07:40.924Z,93702.09
2024-03-14T05:08:15.641Z,93702.20
2024-03-14T05:08:49.168Z,93700.34
2024-03-14T05:09:23.934Z,93702.17
2024-03-14T05:09:57.672Z,93700.31
2024-03-14T05:10:33.414Z,93701.42
2024-03-14T05:11:19.962Z,93702.55
2024-03-14T05:11:53.854Z,93702.96
2024-03-14T05:12:28.055Z,93702.45
2024-03-14T05:13:01.834Z,93700.13
2024-03-14T05:13:35.797Z,93705.18
2024-03-14T05:14:09.318Z,93702.14
2024-03-14T05:15:01.663Z,93701.30
2024-03-14T05:15:35.447Z,93703.64
2024-03-14T05:16:10.844Z,93703.80
2024-03-14T05:16:44.972Z,93705.94
2024-03-14T05:17:18.352Z,93703.27
2024-03-14T05:17:53.626Z,93703.28
2024-03-14T05:18:44.075Z,93705.45
2024-03-14T05:19:18.069Z,93703.95
2024-03-14T05:19:51.917Z,93701.68
2024-03-14T05:20:25.417Z,93703.70
2024-03-14T05:20:58.842Z,93702.63
2024-03-14T05:21:32.542Z,93701.48
2024-03-14T05:22:21.471Z,93704.75
2024-03-14T05:22:55.558Z,93703.28
2024-03-14T05:23:29.391Z,93703.29
2024-03-14T05:24:03.116Z,93701.28
2024-03-14T05:24:37.902Z,93706.36
2024-03-14T05:25:13.960Z,93705.70
2024-03-14T05:26:03.881Z,93709.48
2024-03-14T05:26:37.759Z,93706.64
2024-03-14T05:27:11.515Z,93712.43
2024-03-14T05:27:51.216Z,93711.22
2024-03-14T05:28:26.051Z,93715.14
2024-03-14T05:28:59.812Z,93716.23
2024-03-14T05:29:48.059Z,93715.60
2024-03-14T05:30:25.386Z,93715.88
2024-03-14T05:30:59.293Z,93718.12
2024-03-14T05:31:32.889Z,93716.04
2024-03-14T05:32:22.384Z,93715.46
2024-03-14T05:33:28.864Z,93713.94
2024-03-14T05:34:02.792Z,93717.31
2024-03-14T05:34:36.397Z,93715.45
2024-03-14T05:35:11.942Z,93718.89
2024-03-14T05:35:47.215Z,93716.34
2024-03-14T05:36:20.766Z,93719.79
2024-03-14T05:37:10.266Z,93719.63
2024-03-14T05:37:44.300Z,93719.00
2024-03-14T05:38:18.565Z,93716.55
2024-03-14T05:38:52.186Z,93717.21
2024-03-14T05:39:26.007Z,93720.47
2024-03-14T05:39:59.502Z,93722.02
2024-03-14T05:40:48.358Z,93721.75
2024-03-14T05:41:21.928Z,93722.17
2024-03-14T05:41:55.417Z,93724.98
2024-03-14T05:42:30.156Z,93721.90
2024-03-14T05:43:06.996Z,93721.62
2024-03-14T05:43:46.633Z,93722.50
2024-03-14T05:44:30.555Z,93721.27
2024-03-14T05:45:06.139Z,93722.34
2024-03-14T05:45:40.609Z,93722.55
2024-03-14T05:46:14.402Z,93720.34
2024-03-14T05:46:48.210Z,93719.14
2024-03-14T05:47:22.558Z,93724.08
2024-03-14T05:48:11.194Z,93718.39
2024-03-14T05:48:45.050Z,93722.67
2024-03-14T05:49:18.895Z,93721.17
2024-03-14T05:49:52.439Z,93719.73
2024-03-14T05:50:26.332Z,93723.41
2024-03-14T05:51:00.152Z,93721.48
2024-03-14T05:51:48.551Z,93718.91
2024-03-14T05:52:22.295Z,93720.79
2024-03-14T05:52:57.164Z,93721.99
2024-03-14T05:53:33.196Z,93721.58
2024-03-14T05:54:07.213Z,93716.98
2024-03-14T05:54:41.132Z,93717.55
2024-03-14T05:55:28.998Z,93715.09
2024-03-14T05:56:05.559Z,93714.63
2024-03-14T05:56:39.138Z,93718.34
2024-03-14T05:57:13.823Z,93718.49
2024-03-14T05:57:47.887Z,93716.05
2024-03-14T05:58:23.150Z,93718.91
2024-03-14T05:59:09.675Z,93713.54
2024-03-14T05:59:43.770Z,93716.48
2024-03-14T06:00:22.643Z,93717.80
2024-03-14T06:00:59.133Z,93715.12
2024-03-14T06:01:32.840Z,93715.15
2024-03-14T06:02:08.672Z,93715.18
2024-03-14T06:02:53.682Z,93709.19
2024-03-14T06:03:28.017Z,93712.52
2024-03-14T06:04:01.497Z,93719.48
2024-03-14T06:04:36.049Z,93716.55
2024-03-14T06:05:09.668Z,93717.34
2024-03-14T06:05:43.183Z,93717.05
2024-03-14T06:06:32.046Z,93714.71
2024-03-14T06:07:05.886Z,93719.26
2024-03-14T06:07:39.810Z,93721.92
2024-03-14T06:08:13.153Z,93718.46
2024-03-14T06:08:46.604Z,93720.36
2024-03-14T06:09:33.167Z,93722.33
2024-03-14T06:10:17.034Z,93718.42
2024-03-14T06:10:50.910Z,93718.11
2024-03-14T06:11:24.670Z,93719.11
2024-03-14T06:11:58.708Z,93719.59
2024-03-14T06:12:33.166Z,93718.65
2024-03-14T06:13:06.619Z,93718.31
2024-03-14T06:13:54.963Z,93719.09
2024-03-14T06:14:28.493Z,93719.42
2024-03-14T06:15:03.027Z,93720.58
2024-03-14T06:15:37.129Z,93717.86
2024-03-14T06:16:10.788Z,93719.45
2024-03-14T06:16:44.391Z,93721.79
2024-03-14T06:17:38.079Z,93717.50
2024-03-14T06:18:15.375Z,93718.88
2024-03-14T06:18:49.383Z,93718.61
2024-03-14T06:19:24.145Z,93719.18
2024-03-14T06:19:58.720Z,93714.37
2024-03-14T06:20:32.560Z,93721.67
2024-03-14T06:21:16.287Z,93719.54
2024-03-14T06:21:51.780Z,93718.17
2024-03-14T06:22:25.389Z,93720.30
2024-03-14T06:23:00.866Z,93723.02
2024-03-14T06:23:34.956Z,93722.77
2024-03-14T06:24:10.871Z,93723.59
2024-03-14T06:25:01.126Z,93721.88
2024-03-14T06:25:34.719Z,93722.89
2024-03-14T06:26:08.294Z,93720.31
2024-03-14T06:26:42.931Z,93723.09
2024-03-14T06:27:16.952Z,93723.19
2024-03-14T06:27:50.885Z,93723.23
2024-03-14T06:28:38.715Z,93722.79
2024-03-14T06:29:14.925Z,93723.98
2024-03-14T06:29:49.204Z,93730.19
2024-03-14T06:30:25.100Z,93728.20
2024-03-14T06:31:00.727Z,93733.25
2024-03-14T06:31:35.175Z,93732.00
2024-03-14T06:32:22.976Z,93732.30
2024-03-14T06:32:57.809Z,93729.30
2024-03-14T06:33:32.967Z,93732.73
2024-03-14T06:34:06.987Z,93732.69
2024-03-14T06:34:40.936Z,93732.65
2024-03-14T06:35:15.335Z,93729.61
2024-03-14T06:36:01.605Z,93731.73
2024-03-14T06:36:35.342Z,93735.11
2024-03-14T06:37:09.658Z,93730.62
2024-03-14T06:37:43.398Z,93729.60
2024-03-14T06:38:16.889Z,93732.30
2024-03-14T06:38:50.699Z,93732.00
2024-03-14T06:39:43.903Z,93733.32
2024-03-14T06:40:17.774Z,93736.70
2024-03-14T06:40:53.711Z,93731.92
2024-03-14T06:41:27.275Z,93735.93
2024-03-14T06:42:01.736Z,93732.29
2024-03-14T06:42:35.393Z,93736.70
2024-03-14T06:43:24.542Z,93736.31
2024-03-14T06:43:59.016Z,93739.44
2024-03-14T06:44:33.756Z,93736.04
2024-03-14T06:45:09.002Z,93739.56
2024-03-14T06:45:42.703Z,93739.05
2024-03-14T06:46:17.607Z,93738.59
2024-03-14T06:47:04.985Z,93739.13
2024-03-14T06:47:40.367Z,93737.76
2024-03-14T06:48:15.820Z,93739.46
2024-03-14T06:48:49.241Z,93737.79
2024-03-14T06:49:23.799Z,93736.86
2024-03-14T06:49:58.659Z,93736.40
2024-03-14T06:50:48.052Z,93738.02
2024-03-14T06:51:21.445Z,93735.00
2024-03-14T06:51:55.178Z,93740.54
2024-03-14T06:52:29.242Z,93738.75
2024-03-14T06:53:08.399Z,93732.70
2024-03-14T06:53:42.122Z,93739.61
2024-03-14T06:54:30.872Z,93735.98
2024-03-14T06:55:04.973Z,93738.52
2024-03-14T06:55:38.593Z,93736.17
2024-03-14T06:56:15.292Z,93732.84
2024-03-14T06:56:49.229Z,93737.51
2024-03-14T06:57:22.809Z,93740.33
2024-03-14T06:58:13.079Z,93739.36
2024-03-14T06:58:47.698Z,93743.08
2024-03-14T06:59:21.112Z,93744.95
2024-03-14T06:59:55.048Z,93741.03
2024-03-14T07:00:31.480Z,93742.54
2024-03-14T07:01:05.417Z,93744.98
2024-03-14T07:01:51.160Z,93741.88
2024-03-14T07:02:26.237Z,93741.04
2024-03-14T07:03:00.451Z,93741.23
2024-03-14T07:03:34.550Z,93746.30
2024-03-14T07:04:08.607Z,93747.59
2024-03-14T07:04:42.156Z,93748.94
2024-03-14T07:05:30.071Z,93752.19
2024-03-14T07:06:05.669Z,93750.71
2024-03-14T07:06:39.444Z,93750.06
2024-03-14T07:07:12.986Z,93746.98
2024-03-14T07:07:46.635Z,93751.67
2024-03-14T07:08:20.255Z,93751.38
2024-03-14T07:09:19.710Z,93752.77
2024-03-14T07:09:53.712Z,93753.51
2024-03-14T07:10:27.720Z,93754.13
2024-03-14T07:11:01.565Z,93751.53
2024-03-14T07:11:35.291Z,93755.69
2024-03-14T07:12:11.611Z,93753.41
2024-03-14T07:13:01.996Z,93753.71
2024-03-14T07:13:37.700Z,93754.18
2024-03-14T07:14:11.232Z,93752.14
2024-03-14T07:14:44.695Z,93754.05
2024-03-14T07:15:20.793Z,93751.86
2024-03-14T07:16:35.023Z,93754.31
2024-03-14T07:17:08.563Z,93751.27
2024-03-14T07:17:42.910Z,93748.90
2024-03-14T07:18:18.179Z,93752.48
2024-03-14T07:18:51.977Z,93750.66
2024-03-14T07:19:25.469Z,93754.59
2024-03-14T07:20:26.356Z,93757.23
2024-03-14T07:21:00.315Z,93753.54